Latest Weather Observations for Cape Nelson

IDV60801

Issued at 5:02 pm EST Sunday 25 September 2016 (issued every 30 minutes, with the page automatically refreshed every 10 minutes)

About weather observations | Map of weather stations | Latest weather observations for VIC | Other Formats
Station Details ID: 090184 Name: CAPE NELSON LIGHTHOUSE Lat: -38.43 Lon: 141.54 Height: 45.4 m
Data from the previous 72 hours. | See also: Recent months at Cape Nelson
Date/Time
EST
Temp
°C
App
Temp
°C
Dew
Point
°C
Rel
Hum
%
Delta-T
°C
Wind Press
QNH
hPa
Press
MSL
hPa
Rain since
9am
mm
Dir  Spd
km/h
Gust
km/h
Spd
kts
Gust
kts
25/05:00pm 12.4 7.5 5.3 62 3.3 WNW 20 28 11 15 1012.2 1012.2 0.0
25/04:30pm 12.4 8.2 5.6 63 3.2 WNW 17 28 9 15 1012.1 1012.1 0.0
25/04:00pm 13.0 8.4 5.4 60 3.6 W 19 26 10 14 1011.9 1011.9 0.0
25/03:30pm 13.3 8.7 5.5 59 3.7 W 19 30 10 16 1011.9 1011.9 0.0
25/03:00pm 13.2 8.9 5.4 59 3.7 W 17 24 9 13 1012.1 1012.1 0.0
25/02:30pm 12.6 7.7 5.3 61 3.4 W 20 32 11 17 1012.2 1012.2 0.0
25/02:00pm 12.3 7.7 3.5 55 3.9 W 17 32 9 17 1012.3 1012.3 0.0
25/01:30pm 12.7 7.5 3.4 53 4.2 W 20 33 11 18 1012.3 1012.3 0.0
25/01:00pm 12.1 6.6 4.1 58 3.6 W 22 32 12 17 1012.2 1012.2 0.0
25/12:30pm 12.4 6.9 3.9 56 3.8 W 22 35 12 19 1012.6 1012.6 0.0
25/12:00pm 12.1 6.3 4.3 59 3.5 W 24 35 13 19 1012.5 1012.5 0.0
25/11:30am 11.6 6.0 5.3 65 2.9 W 24 39 13 21 1012.8 1012.8 0.0
25/11:00am 12.4 6.3 4.6 59 3.6 W 26 39 14 21 1012.7 1012.7 0.0
25/10:30am 11.7 4.5 3.2 56 3.7 W 30 41 16 22 1012.6 1012.6 0.0
25/10:00am 11.7 5.3 5.3 65 3.0 W 28 41 15 22 1012.4 1012.4 0.0
25/09:30am 11.7 5.2 4.7 62 3.2 W 28 41 15 22 1012.1 1012.1 0.0
25/09:00am 11.2 5.0 4.2 62 3.1 W 26 35 14 19 1012.0 1012.0 11.8
25/08:30am 11.3 6.0 5.0 65 2.9 WNW 22 35 12 19 1011.6 1011.6 11.8
25/08:00am 10.9 4.7 4.4 64 2.9 W 26 39 14 21 1011.2 1011.2 11.8
25/07:30am 10.7 5.2 4.0 63 3.0 NW 22 43 12 23 1010.7 1010.7 11.8
25/07:00am 10.6 4.6 5.2 69 2.5 WNW 26 41 14 22 1010.0 1010.0 11.8
25/06:39am 10.6 3.9 3.6 62 3.1 WNW 28 46 15 25 1010.1 1010.1 11.8
25/06:30am 10.2 3.1 3.7 64 2.9 WNW 30 44 16 24 1009.9 1009.9 11.8
25/06:00am 9.0 3.1 5.9 81 1.4 WNW 26 52 14 28 1009.7 1009.7 11.8
25/05:30am 10.4 2.4 3.7 63 3.0 W 35 50 19 27 1009.3 1009.3 11.4
25/05:03am 10.5 3.8 5.5 71 2.3 W 30 52 16 28 1008.9 1008.9 10.6
25/05:00am 10.7 3.2 3.7 62 3.1 W 32 44 17 24 1008.9 1008.9 10.6
25/04:52am 10.7 3.2 3.5 61 3.2 W 32 50 17 27 1008.8 1008.8 10.6
25/04:30am 10.6 3.1 4.5 66 2.7 W 33 46 18 25 1008.7 1008.7 10.6
25/04:02am 10.7 3.1 3.7 62 3.1 W 33 52 18 28 1008.4 1008.4 10.6
25/04:00am 10.9 2.9 3.9 62 3.1 W 35 52 19 28 1008.4 1008.4 10.6
25/03:57am 10.6 3.1 3.2 60 3.2 W 32 52 17 28 1008.4 1008.4 10.6
25/03:30am 10.8 2.1 4.3 64 2.9 W 39 54 21 29 1008.0 1008.0 10.6
25/03:00am 10.6 3.0 4.1 64 2.9 W 33 57 18 31 1008.0 1008.0 10.6
25/02:32am 10.1 2.6 4.5 68 2.5 W 33 52 18 28 1008.2 1008.2 10.2
25/02:30am 10.0 2.1 4.2 67 2.6 W 35 52 19 28 1008.2 1008.2 10.2
25/02:04am 10.8 4.2 4.3 64 2.9 W 28 46 15 25 1008.0 1008.0 10.2
25/02:00am 10.7 4.1 4.2 64 2.9 W 28 41 15 22 1008.0 1008.0 10.2
25/01:45am 10.7 4.1 4.0 63 3.0 W 28 48 15 26 1007.9 1007.9 10.2
25/01:30am 10.4 3.8 4.3 66 2.7 W 28 41 15 22 1008.1 1008.1 10.2
25/01:00am 10.4 2.1 6.0 74 2.0 W 39 61 21 33 1007.9 1007.9 10.2
25/12:33am 11.0 4.0 4.2 63 3.0 W 30 48 16 26 1007.9 1007.9 10.2
25/12:30am 11.2 3.8 4.2 62 3.1 W 32 48 17 26 1007.8 1007.8 10.2
25/12:19am 11.0 3.5 4.2 63 3.0 W 33 52 18 28 1007.8 1007.8 10.2
25/12:00am 11.4 2.5 5.3 66 2.8 W 41 54 22 29 1007.6 1007.6 10.2
 
Date/Time
EST
Temp
°C
App
Temp
°C
Dew
Point
°C
Rel
Hum
%
Delta-T
°C
Wind Press
QNH
hPa
Press
MSL
hPa
Rain since
9am
mm
Dir  Spd
km/h
Gust
km/h
Spd
kts
Gust
kts
24/11:30pm 11.4 3.8 5.9 69 2.6 W 35 46 19 25 1007.6 1007.6 10.2
24/11:00pm 11.3 3.8 6.2 71 2.4 W 35 50 19 27 1007.4 1007.4 10.2
24/10:53pm 11.4 4.6 6.7 73 2.2 W 32 50 17 27 1007.3 1007.3 10.2
24/10:30pm 11.8 4.2 5.9 67 2.8 W 35 46 19 25 1007.5 1007.5 10.2
24/10:00pm 11.6 4.8 6.7 72 2.3 W 32 43 17 23 1007.3 1007.3 10.2
24/09:30pm 12.0 5.0 6.9 71 2.4 W 33 44 18 24 1007.1 1007.1 10.2
24/09:00pm 11.9 4.9 7.0 72 2.4 W 33 44 18 24 1006.8 1006.8 10.2
24/08:30pm 11.8 7.0 8.8 82 1.5 NW 24 41 13 22 1006.3 1006.3 10.2
24/08:00pm 12.4 5.6 7.9 74 2.2 W 33 46 18 25 1006.2 1006.2 10.2
24/07:30pm 12.3 6.6 8.4 77 1.9 WNW 28 43 15 23 1005.6 1005.6 10.2
24/07:00pm 11.9 6.1 8.0 77 1.9 WNW 28 41 15 22 1004.9 1004.9 10.2
24/06:44pm 12.2 6.5 8.3 77 1.9 WNW 28 46 15 25 1004.6 1004.5 10.2
24/06:30pm 12.1 7.0 9.3 83 1.4 WNW 26 39 14 21 1004.3 1004.2 10.2
24/06:01pm 12.1 6.1 10.0 87 1.1 WNW 32 50 17 27 1003.6 1003.6 10.2
24/06:00pm 12.1 5.9 10.0 87 1.1 WNW 33 50 18 27 1003.5 1003.5 10.2
24/05:35pm 11.8 6.7 10.5 92 0.7 WNW 28 46 15 25 1002.8 1002.8 10.2
24/05:30pm 12.1 7.2 11.2 94 0.5 WNW 28 43 15 23 1002.6 1002.6 9.8
24/05:13pm 12.4 8.2 11.1 92 0.7 NW 24 63 13 34 1002.6 1002.6 8.6
24/05:00pm 13.0 9.4 11.9 93 0.6 NNW 22 32 12 17 1002.3 1002.3 6.6
24/04:30pm 13.2 9.6 11.9 92 0.7 NNW 22 33 12 18 1002.1 1002.1 4.2
24/04:00pm 13.0 9.3 11.6 91 0.7 N 22 35 12 19 1001.7 1001.7 3.8
24/03:30pm 13.1 9.8 11.7 91 0.7 N 20 30 11 16 1002.1 1002.1 3.8
24/03:00pm 13.6 10.7 12.2 91 0.8 N 19 33 10 18 1002.4 1002.4 2.6
24/02:30pm 13.6 10.3 11.5 87 1.1 NNW 20 28 11 15 1002.5 1002.5 1.6
24/02:00pm 13.7 10.5 11.4 86 1.2 NNW 19 28 10 15 1002.5 1002.5 0.8
24/01:30pm 13.6 10.4 11.3 86 1.2 NNW 19 30 10 16 1002.8 1002.8 0.8
24/01:00pm 14.6 10.7 10.8 78 2.0 NNW 22 41 12 22 1003.0 1003.0 0.2
24/12:30pm 16.0 11.0 9.7 66 3.3 NNW 26 39 14 21 1003.2 1003.2 0.0
24/12:00pm 17.1 11.4 8.5 57 4.4 NNW 28 41 15 22 1003.1 1003.1 0.0
24/11:30am 16.8 11.4 8.2 57 4.4 NNW 26 37 14 20 1003.2 1003.2 0.0
24/11:00am 16.3 10.1 8.0 58 4.2 NNW 30 41 16 22 1003.5 1003.5 0.0
24/10:30am 15.3 9.5 7.8 61 3.8 N 28 46 15 25 1003.7 1003.7 0.0
24/10:28am 15.2 9.3 7.5 60 3.8 N 28 46 15 25 1003.8 1003.8 0.0
24/10:00am 14.5 7.8 7.3 62 3.6 N 32 46 17 25 1003.9 1003.9 0.0
24/09:40am 13.8 7.4 6.9 63 3.4 N 30 48 16 26 1004.0 1004.0 0.0
24/09:30am 13.5 6.7 7.1 65 3.1 N 32 46 17 25 1004.0 1004.0 0.0
24/09:00am 12.5 6.0 6.5 67 2.9 N 30 44 16 24 1004.0 1004.0 0.0
24/08:30am 12.0 5.1 6.5 69 2.6 N 32 44 17 24 1004.0 1004.0 0.0
24/08:00am 11.5 6.1 6.4 71 2.4 N 24 39 13 21 1004.3 1004.2 0.0
24/07:30am 11.2 5.4 6.1 71 2.4 N 26 37 14 20 1004.7 1004.6 0.0
24/07:00am 11.0 4.8 6.0 71 2.3 N 28 44 15 24 1004.9 1004.9 0.0
24/06:30am 10.2 4.3 5.8 74 2.0 N 26 33 14 18 1005.1 1005.1 0.0
24/06:00am 9.8 3.9 5.8 76 1.8 N 26 37 14 20 1005.1 1005.1 0.0
24/05:30am 9.7 4.2 5.9 77 1.7 N 24 33 13 18 1005.0 1005.0 0.0
24/05:00am 9.7 3.4 5.9 77 1.8 N 28 39 15 21 1005.0 1005.0 0.0
24/04:30am 9.7 3.4 5.9 77 1.7 N 28 39 15 21 1005.4 1005.4 0.0
24/04:00am 9.8 4.3 6.0 77 1.8 NNE 24 37 13 20 1005.8 1005.8 0.0
24/03:30am 10.0 3.8 6.2 77 1.8 NNE 28 35 15 19 1006.1 1006.1 0.0
24/03:00am 9.8 4.7 6.2 78 1.7 NNE 22 32 12 17 1006.7 1006.7 0.0
24/02:30am 9.8 5.1 6.2 78 1.7 NNE 20 30 11 16 1007.1 1007.1 0.0
24/02:00am 10.2 5.1 6.2 76 1.9 NNE 22 33 12 18 1007.6 1007.6 0.0
24/01:30am 10.6 5.6 6.4 75 2.0 NNE 22 33 12 18 1008.0 1008.0 0.0
24/01:00am 10.8 6.4 6.4 74 2.1 N 19 32 10 17 1008.2 1008.2 0.0
24/12:30am 10.7 6.6 6.3 74 2.1 N 17 24 9 13 1008.3 1008.3 0.0
24/12:00am 10.6 6.5 6.4 75 2.0 N 17 22 9 12 1008.5 1008.5 0.0
 
Date/Time
EST
Temp
°C
App
Temp
°C
Dew
Point
°C
Rel
Hum
%
Delta-T
°C
Wind Press
QNH
hPa
Press
MSL
hPa
Rain since
9am
mm
Dir  Spd
km/h
Gust
km/h
Spd
kts
Gust
kts
23/11:30pm 10.7 6.1 6.5 75 2.0 N 20 30 11 16 1008.7 1008.7 0.0
23/11:00pm 10.3 6.6 6.5 77 1.8 N 15 20 8 11 1009.1 1009.1 0.0
23/10:30pm 10.2 6.5 6.4 77 1.8 N 15 20 8 11 1009.5 1009.5 0.0
23/10:00pm 10.0 6.4 6.9 81 1.5 N 15 20 8 11 1009.8 1009.8 0.0
23/09:30pm 10.7 7.9 8.5 86 1.1 NNE 13 19 7 10 1010.1 1010.1 0.0
23/09:00pm 11.3 8.7 9.2 87 1.1 NE 13 17 7 9 1010.3 1010.3 0.0
23/08:30pm 11.4 8.7 9.0 85 1.2 ENE 13 19 7 10 1010.5 1010.5 0.0
23/08:00pm 10.4 7.3 7.1 80 1.6 NE 13 15 7 8 1010.5 1010.5 0.0
23/07:30pm 10.4 7.5 6.4 76 1.9 NNE 11 13 6 7 1010.7 1010.7 0.0
23/07:00pm 11.5 9.1 7.0 74 2.2 NNE 9 11 5 6 1010.4 1010.4 0.0
23/06:30pm 12.4 9.7 7.5 72 2.4 NE 11 15 6 8 1010.2 1010.2 0.0
23/06:00pm 13.2 10.8 7.0 66 3.0 NE 9 15 5 8 1010.2 1010.2 0.0
23/05:30pm 13.5 10.4 7.1 65 3.1 NE 13 17 7 9 1009.9 1009.9 0.0
23/05:00pm 14.6 11.5 8.8 68 3.0 ENE 15 22 8 12 1010.0 1010.0 0.0
23/04:30pm 14.2 10.9 8.2 67 3.0 ENE 15 20 8 11 1010.3 1010.3 0.0
23/04:00pm 14.4 10.7 8.1 66 3.2 ENE 17 22 9 12 1010.5 1010.5 0.0
23/03:30pm 14.2 9.9 7.7 65 3.2 E 20 26 11 14 1010.7 1010.7 0.0
23/03:00pm 14.1 9.3 7.4 64 3.3 E 22 26 12 14 1011.1 1011.1 0.0
23/02:30pm 14.2 9.8 7.3 63 3.4 E 20 28 11 15 1011.4 1011.4 0.0
23/02:00pm 14.4 10.0 7.2 62 3.5 E 20 28 11 15 1011.9 1011.9 0.0
23/01:30pm 13.8 9.4 6.7 62 3.4 E 19 26 10 14 1012.5 1012.5 0.0
23/01:00pm 13.2 8.5 5.9 61 3.5 E 20 28 11 15 1013.1 1013.1 0.0
23/12:30pm 12.9 8.3 5.6 61 3.4 E 19 28 10 15 1013.8 1013.8 0.0
23/12:00pm 14.2 9.7 6.1 58 3.9 ENE 19 26 10 14 1014.2 1014.2 0.0
23/11:30am 13.1 8.3 5.8 61 3.4 ENE 20 26 11 14 1014.7 1014.7 0.0
23/11:00am 11.8 6.5 4.8 62 3.2 ENE 22 30 12 16 1015.3 1015.3 0.0
23/10:30am 12.1 6.7 4.6 60 3.4 ENE 22 30 12 16 1015.7 1015.7 0.0
23/10:00am 11.6 6.5 4.1 60 3.4 NE 20 30 11 16 1016.3 1016.3 0.0
23/09:30am 12.3 7.9 4.8 60 3.4 NE 17 28 9 15 1016.6 1016.6 0.0
23/09:00am 11.3 7.2 4.5 63 3.1 NE 15 20 8 11 1017.0 1017.0 0.0
23/08:30am 10.8 6.8 4.7 66 2.8 NE 15 20 8 11 1017.2 1017.2 0.0
23/08:00am 9.6 6.7 4.6 71 2.2 N 9 13 5 7 1017.6 1017.6 0.0
23/07:30am 8.6 5.6 4.0 73 2.0 N 9 13 5 7 1017.7 1017.7 0.0
23/07:00am 8.1 4.7 4.1 76 1.7 N 11 15 6 8 1017.6 1017.6 0.0
23/06:30am 7.8 5.1 3.8 76 1.7 N 7 9 4 5 1017.6 1017.6 0.0
23/06:00am 7.8 4.7 3.8 76 1.7 N 9 11 5 6 1017.4 1017.4 0.0
23/05:30am 7.8 4.8 4.2 78 1.6 N 9 11 5 6 1017.4 1017.4 0.0
23/05:00am 7.7 4.3 3.9 77 1.6 N 11 11 6 6 1017.4 1017.4 0.0
23/04:30am 7.5 4.4 3.6 76 1.7 N 9 13 5 7 1017.3 1017.3 0.0
23/04:00am 7.5 3.9 3.2 74 1.8 N 11 15 6 8 1017.4 1017.4 0.0
23/03:30am 8.6 5.1 3.4 70 2.2 E 11 19 6 10 1017.2 1017.2 0.0
23/03:00am 8.1 4.9 3.2 71 2.1 ENE 9 13 5 7 1017.5 1017.5 0.0
23/02:30am 8.3 5.1 3.0 69 2.3 ENE 9 11 5 6 1017.8 1017.8 0.0
23/02:00am 8.8 4.9 3.2 68 2.4 ENE 13 19 7 10 1017.8 1017.8 0.0
23/01:30am 9.3 5.8 3.3 66 2.6 ESE 11 15 6 8 1018.2 1018.2 0.0
23/01:00am 9.4 6.3 3.4 66 2.6 ENE 9 13 5 7 1018.6 1018.6 0.0
23/12:30am 9.6 6.5 3.4 65 2.7 E 9 17 5 9 1019.0 1019.0 0.0
23/12:00am 9.7 6.2 3.7 66 2.6 ENE 11 19 6 10 1019.2 1019.2 0.0
 
Date/Time
EST
Temp
°C
App
Temp
°C
Dew
Point
°C
Rel
Hum
%
Delta-T
°C
Wind Press
QNH
hPa
Press
MSL
hPa
Rain since
9am
mm
Dir  Spd
km/h
Gust
km/h
Spd
kts
Gust
kts
22/11:30pm 9.8 7.1 3.5 65 2.7 SE 7 13 4 7 1019.6 1019.6 0.0
22/11:00pm 10.0 6.8 3.3 63 2.9 SE 9 13 5 7 1019.9 1019.9 0.0
22/10:30pm 10.0 6.5 3.7 65 2.8 SSE 11 17 6 9 1020.1 1020.1 0.0
22/10:00pm 10.1 6.2 3.2 62 3.0 SSE 13 17 7 9 1020.1 1020.1 0.0
22/09:30pm 10.1 7.5 3.2 62 3.0 S 6 15 3 8 1020.5 1020.5 0.0
22/09:00pm 10.1 7.0 3.4 63 2.9 S 9 15 5 8 1020.4 1020.4 0.0
22/08:30pm 10.0 6.8 3.1 62 3.0 SSE 9 15 5 8 1020.4 1020.4 0.0
22/08:00pm 10.0 5.6 2.8 61 3.1 S 15 24 8 13 1020.4 1020.4 0.0
22/07:30pm 10.1 6.9 2.9 61 3.1 S 9 15 5 8 1020.5 1020.5 0.0
22/07:00pm 10.3 5.5 2.7 59 3.3 S 17 24 9 13 1020.4 1020.4 0.0
22/06:30pm 10.4 7.3 3.4 62 3.1 SSW 9 17 5 9 1020.3 1020.3 0.0
22/06:00pm 10.5 7.0 3.5 62 3.1 S 11 20 6 11 1020.2 1020.2 0.0
22/05:30pm 10.5 6.5 2.8 59 3.3 SSE 13 22 7 12 1019.9 1019.9 0.0

Other Formats:

Comma delimited format used in spreadsheet applications
http://www.bom.gov.au/fwo/IDV60801/IDV60801.94826.axf

JavaScript Object Notation format (JSON) in row-major order
http://www.bom.gov.au/fwo/IDV60801/IDV60801.94826.json